createdAt,value
2022-12-03T00:02:00.827Z,103783.53
2022-12-03T00:05:06.724Z,103787.78
2022-12-03T00:08:14.966Z,103783.53
2022-12-03T00:11:21.123Z,103787.50
2022-12-03T00:14:25.994Z,103775.94
2022-12-03T00:17:30.791Z,103764.91
2022-12-03T00:20:35.446Z,103773.81
2022-12-03T00:23:42.229Z,103766.81
2022-12-03T00:26:48.644Z,103762.22
2022-12-03T00:29:53.397Z,103767.84
2022-12-03T00:32:58.014Z,103765.78
2022-12-03T00:36:02.710Z,103784.03
2022-12-03T00:39:07.357Z,103774.56
2022-12-03T00:42:14.325Z,103778.59
2022-12-03T00:45:19.194Z,103774.72
2022-12-03T00:48:23.987Z,103771.13
2022-12-03T00:51:28.766Z,103774.94
2022-12-03T00:54:33.464Z,103766.28
2022-12-03T00:57:39.528Z,103776.28
2022-12-03T01:00:44.442Z,103774.03
2022-12-03T01:03:49.218Z,103770.91
2022-12-03T01:06:53.986Z,103767.03
2022-12-03T01:09:58.703Z,103773.34
2022-12-03T01:13:04.877Z,103777.16
2022-12-03T01:16:09.583Z,103763.69
2022-12-03T01:19:16.706Z,103769.53
2022-12-03T01:22:21.347Z,103773.63
2022-12-03T01:25:26.296Z,103779.22
2022-12-03T01:28:32.566Z,103769.56
2022-12-03T01:31:54.806Z,103777.47
2022-12-03T01:34:59.422Z,103775.72
2022-12-03T01:38:04.318Z,103780.25
2022-12-03T01:41:12.047Z,103773.38
2022-12-03T01:44:21.081Z,103765.13
2022-12-03T01:47:32.078Z,103764.16
2022-12-03T01:50:36.776Z,103753.31
2022-12-03T01:53:41.589Z,103756.44
2022-12-03T01:56:46.785Z,103757.22
2022-12-03T01:59:54.068Z,103763.81
2022-12-03T02:03:03.277Z,103752.78
2022-12-03T02:06:12.780Z,103764.31
2022-12-03T02:09:17.557Z,103764.31
2022-12-03T02:12:26.140Z,103759.69
2022-12-03T02:15:32.345Z,103760.34
2022-12-03T02:18:37.209Z,103763.56
2022-12-03T02:21:47.827Z,103762.59
2022-12-03T02:24:57.309Z,103760.78
2022-12-03T02:28:04.808Z,103754.88
2022-12-03T02:31:09.597Z,103758.34
2022-12-03T02:34:36.908Z,103756.44
2022-12-03T02:37:41.565Z,103750.53
2022-12-03T02:40:48.586Z,103750.16
2022-12-03T02:43:54.566Z,103757.63
2022-12-03T02:46:59.426Z,103756.84
2022-12-03T02:50:05.154Z,103758.25
2022-12-03T02:53:14.985Z,103752.25
2022-12-03T02:56:22.474Z,103749.13
2022-12-03T02:59:28.632Z,103751.03
2022-12-03T03:02:33.584Z,103759.28
2022-12-03T03:05:39.685Z,103757.25
2022-12-03T03:08:45.059Z,103754.53
2022-12-03T03:11:49.810Z,103753.78
2022-12-03T03:14:56.075Z,103746.31
2022-12-03T03:18:01.057Z,103745.69
2022-12-03T03:21:06.416Z,103742.91
2022-12-03T03:24:12.619Z,103747.00
2022-12-03T03:27:17.250Z,103740.13
2022-12-03T03:30:23.605Z,103743.25
2022-12-03T03:33:28.520Z,103737.44
2022-12-03T03:36:33.718Z,103735.28
2022-12-03T03:39:38.344Z,103729.56
2022-12-03T03:42:43.752Z,103721.50
2022-12-03T03:45:50.604Z,103717.91
2022-12-03T03:48:55.788Z,103728.09
2022-12-03T03:52:00.580Z,103737.81
2022-12-03T03:55:06.912Z,103732.34
2022-12-03T03:58:13.301Z,103726.19
2022-12-03T04:01:19.902Z,103733.03
2022-12-03T04:04:27.488Z,103726.78
2022-12-03T04:07:32.201Z,103739.03
2022-12-03T04:10:54.407Z,103739.56
2022-12-03T04:13:59.174Z,103734.06
2022-12-03T04:17:05.512Z,103736.31
2022-12-03T04:20:14.424Z,103746.75
2022-12-03T04:23:18.108Z,103728.34
2022-12-03T04:26:40.068Z,103731.28
2022-12-03T04:29:44.763Z,103719.16
2022-12-03T04:33:08.157Z,103726.88
2022-12-03T04:36:13.401Z,103718.72
2022-12-03T04:39:18.185Z,103705.78
2022-12-03T04:42:22.993Z,103716.72
2022-12-03T04:45:27.639Z,103712.09
2022-12-03T04:48:33.668Z,103710.38
2022-12-03T04:51:38.507Z,103716.13
2022-12-03T04:54:43.842Z,103703.38
2022-12-03T04:57:48.483Z,103715.88
2022-12-03T05:00:53.226Z,103715.88
2022-12-03T05:03:59.318Z,103716.19
2022-12-03T05:07:04.346Z,103712.66
2022-12-03T05:10:13.848Z,103719.25
2022-12-03T05:13:18.467Z,103711.88
2022-12-03T05:16:23.268Z,103715.69
2022-12-03T05:19:43.126Z,103711.31
2022-12-03T05:22:47.836Z,103707.84
2022-12-03T05:25:52.469Z,103710.91
2022-12-03T05:28:57.265Z,103717.91
2022-12-03T05:32:01.934Z,103716.72
2022-12-03T05:35:09.077Z,103710.28
2022-12-03T05:38:15.607Z,103708.81
2022-12-03T05:41:37.586Z,103708.56
2022-12-03T05:44:42.259Z,103705.25
2022-12-03T05:47:47.218Z,103701.22
2022-12-03T05:50:53.188Z,103702.81
2022-12-03T05:53:58.028Z,103710.47
2022-12-03T05:57:02.747Z,103707.16
2022-12-03T06:00:12.330Z,103709.69
2022-12-03T06:03:20.993Z,103706.81
2022-12-03T06:06:27.249Z,103711.84
2022-12-03T06:09:31.894Z,103720.78
2022-12-03T06:12:36.582Z,103715.50
2022-12-03T06:15:43.974Z,103709.06
2022-12-03T06:18:48.994Z,103717.41
2022-12-03T06:21:55.564Z,103704.41
2022-12-03T06:25:06.118Z,103714.19
2022-12-03T06:28:13.233Z,103707.50
2022-12-03T06:31:18.050Z,103703.78
2022-12-03T06:34:23.232Z,103705.41
2022-12-03T06:37:29.297Z,103701.16
2022-12-03T06:40:34.240Z,103703.53
2022-12-03T06:43:38.970Z,103704.47
2022-12-03T06:46:43.678Z,103707.66
2022-12-03T06:49:48.365Z,103712.34
2022-12-03T06:52:54.513Z,103716.44
2022-12-03T06:55:59.292Z,103711.50
2022-12-03T06:59:04.129Z,103717.75
2022-12-03T07:02:08.833Z,103721.16
2022-12-03T07:05:13.837Z,103729.72
2022-12-03T07:08:20.182Z,103733.72
2022-12-03T07:11:39.780Z,103717.94
2022-12-03T07:14:44.466Z,103721.47
2022-12-03T07:17:49.241Z,103720.38
2022-12-03T07:20:54.261Z,103713.72
2022-12-03T07:24:00.287Z,103712.19
2022-12-03T07:27:05.282Z,103705.00
2022-12-03T07:30:12.724Z,103690.84
2022-12-03T07:33:17.453Z,103697.09
2022-12-03T07:36:22.068Z,103698.16
2022-12-03T07:39:28.294Z,103715.31
2022-12-03T07:42:32.942Z,103706.38
2022-12-03T07:45:37.856Z,103698.84
2022-12-03T07:48:42.520Z,103700.84
2022-12-03T07:51:53.745Z,103702.41
2022-12-03T07:54:59.766Z,103706.06
2022-12-03T07:58:04.713Z,103720.03
2022-12-03T08:01:10.424Z,103715.50
2022-12-03T08:04:18.304Z,103722.44
2022-12-03T08:07:22.897Z,103716.63
2022-12-03T08:10:29.045Z,103723.41
2022-12-03T08:13:36.184Z,103712.97
2022-12-03T08:16:42.881Z,103711.16
2022-12-03T08:19:48.731Z,103707.16
2022-12-03T08:22:55.095Z,103710.28
2022-12-03T08:26:02.947Z,103721.78
2022-12-03T08:29:10.337Z,103724.19
2022-12-03T08:32:15.298Z,103718.63
2022-12-03T08:35:24.675Z,103726.94
2022-12-03T08:38:31.411Z,103719.84
2022-12-03T08:41:55.327Z,103725.38
2022-12-03T08:45:17.744Z,103718.13
2022-12-03T08:48:42.813Z,103713.16
2022-12-03T08:51:52.947Z,103708.13
2022-12-03T08:54:59.866Z,103733.91
2022-12-03T08:58:17.778Z,103717.50
2022-12-03T09:01:40.243Z,103722.63
2022-12-03T09:04:47.207Z,103722.28
2022-12-03T09:07:51.921Z,103732.16
2022-12-03T09:10:56.640Z,103712.31
2022-12-03T09:14:02.732Z,103702.22
2022-12-03T09:17:07.451Z,103710.22
2022-12-03T09:20:14.115Z,103708.63
2022-12-03T09:23:18.937Z,103699.28
2022-12-03T09:26:23.679Z,103707.44
2022-12-03T09:29:29.867Z,103689.63
2022-12-03T09:32:34.678Z,103702.06
2022-12-03T09:35:40.690Z,103694.50
2022-12-03T09:38:47.934Z,103702.69
2022-12-03T09:41:53.031Z,103696.34
2022-12-03T09:44:59.221Z,103688.97
2022-12-03T09:48:05.300Z,103698.16
2022-12-03T09:51:11.652Z,103691.03
2022-12-03T09:54:24.852Z,103700.94
2022-12-03T09:57:29.586Z,103701.94
2022-12-03T10:00:35.873Z,103692.88
2022-12-03T10:03:45.017Z,103691.47
2022-12-03T10:06:49.787Z,103679.59
2022-12-03T10:09:54.867Z,103681.47
2022-12-03T10:12:59.829Z,103663.78
2022-12-03T10:16:06.665Z,103659.47
2022-12-03T10:19:13.853Z,103675.19
2022-12-03T10:22:18.588Z,103668.94
2022-12-03T10:25:24.455Z,103676.84
2022-12-03T10:28:32.745Z,103678.31
2022-12-03T10:31:38.769Z,103680.56
2022-12-03T10:34:44.826Z,103677.50
2022-12-03T10:38:04.672Z,103664.00
2022-12-03T10:41:27.012Z,103665.97
2022-12-03T10:44:31.725Z,103663.69
2022-12-03T10:47:37.926Z,103663.47
2022-12-03T10:50:51.965Z,103656.44
2022-12-03T10:53:57.301Z,103659.81
2022-12-03T10:57:02.796Z,103653.09
2022-12-03T11:00:09.457Z,103657.00
2022-12-03T11:03:22.066Z,103669.75
2022-12-03T11:06:26.856Z,103664.50
2022-12-03T11:09:33.773Z,103657.94
2022-12-03T11:12:38.470Z,103666.81
2022-12-03T11:15:45.803Z,103655.06
2022-12-03T11:19:03.472Z,103654.91
2022-12-03T11:22:43.129Z,103656.97
2022-12-03T11:25:50.996Z,103659.47
2022-12-03T11:28:57.813Z,103653.50
2022-12-03T11:32:02.675Z,103648.44
2022-12-03T11:35:13.864Z,103662.09
2022-12-03T11:38:50.778Z,103647.22
2022-12-03T11:42:38.615Z,103653.56
2022-12-03T11:45:43.305Z,103650.19
2022-12-03T11:48:52.567Z,103636.66
2022-12-03T11:51:59.210Z,103643.69
2022-12-03T11:55:16.122Z,103656.69
2022-12-03T11:58:27.858Z,103652.97
2022-12-03T12:01:39.075Z,103641.69
2022-12-03T12:04:47.561Z,103648.44
2022-12-03T12:07:55.947Z,103644.28
2022-12-03T12:11:01.398Z,103643.94
2022-12-03T12:14:06.913Z,103634.91
2022-12-03T12:17:34.384Z,103638.38
2022-12-03T12:20:40.516Z,103631.78
2022-12-03T12:23:46.577Z,103632.50
2022-12-03T12:26:52.358Z,103610.06
2022-12-03T12:29:58.792Z,103621.53
2022-12-03T12:33:23.326Z,103622.28
2022-12-03T12:36:29.913Z,103617.47
2022-12-03T12:39:36.695Z,103621.88
2022-12-03T12:42:46.647Z,103610.97
2022-12-03T12:45:52.660Z,103615.63
2022-12-03T12:48:59.853Z,103623.78
2022-12-03T12:52:06.927Z,103618.75
2022-12-03T12:55:14.837Z,103617.53
2022-12-03T12:58:22.161Z,103619.97
2022-12-03T13:01:29.998Z,103618.25
2022-12-03T13:04:40.001Z,103632.44
2022-12-03T13:07:45.446Z,103618.25
2022-12-03T13:10:53.337Z,103621.03
2022-12-03T13:13:58.185Z,103617.28
2022-12-03T13:17:11.333Z,103619.75
2022-12-03T13:20:17.107Z,103617.97
2022-12-03T13:23:30.746Z,103621.75
2022-12-03T13:26:40.749Z,103621.44
2022-12-03T13:29:46.338Z,103617.88
2022-12-03T13:32:50.998Z,103617.38
2022-12-03T13:35:57.354Z,103617.28
2022-12-03T13:39:02.155Z,103616.25
2022-12-03T13:42:38.624Z,103619.41
2022-12-03T13:45:45.837Z,103612.34
2022-12-03T13:48:50.766Z,103628.16
2022-12-03T13:51:55.429Z,103628.16
2022-12-03T13:55:00.443Z,103611.22
2022-12-03T13:58:06.561Z,103621.28
2022-12-03T14:01:12.523Z,103608.47
2022-12-03T14:04:17.162Z,103610.19
2022-12-03T14:07:21.787Z,103605.69
2022-12-03T14:10:26.557Z,103598.44
2022-12-03T14:13:32.825Z,103599.53
2022-12-03T14:16:37.538Z,103589.97
2022-12-03T14:19:42.228Z,103589.00
2022-12-03T14:22:47.435Z,103600.97
2022-12-03T14:25:53.012Z,103600.41
2022-12-03T14:28:59.133Z,103597.97
2022-12-03T14:32:04.086Z,103599.53
2022-12-03T14:35:10.257Z,103604.13
2022-12-03T14:38:15.321Z,103588.16
2022-12-03T14:41:37.403Z,103584.88
2022-12-03T14:44:44.963Z,103579.22
2022-12-03T14:48:04.963Z,103585.91
2022-12-03T14:51:09.718Z,103578.09
2022-12-03T14:54:14.375Z,103574.50
2022-12-03T14:57:19.026Z,103586.16
2022-12-03T15:00:25.304Z,103569.31
2022-12-03T15:03:30.048Z,103571.44
2022-12-03T15:06:35.110Z,103579.25
2022-12-03T15:09:39.714Z,103577.78
2022-12-03T15:12:44.466Z,103577.25
2022-12-03T15:15:50.782Z,103577.66
2022-12-03T15:18:55.766Z,103588.44
2022-12-03T15:22:00.416Z,103584.63
2022-12-03T15:25:06.026Z,103574.53
2022-12-03T15:28:13.427Z,103585.91
2022-12-03T15:31:20.273Z,103586.19
2022-12-03T15:34:24.985Z,103585.41
2022-12-03T15:37:29.730Z,103579.59
2022-12-03T15:40:34.488Z,103567.94
2022-12-03T15:43:39.415Z,103578.66
2022-12-03T15:46:45.500Z,103570.41
2022-12-03T15:49:50.200Z,103571.19
2022-12-03T15:52:55.257Z,103578.91
2022-12-03T15:56:00.042Z,103571.38
2022-12-03T15:59:04.862Z,103567.09
2022-12-03T16:02:11.095Z,103556.25
2022-12-03T16:05:16.148Z,103577.44
2022-12-03T16:08:20.948Z,103587.34
2022-12-03T16:11:25.654Z,103579.38
2022-12-03T16:14:30.464Z,103588.34
2022-12-03T16:17:36.666Z,103584.44
2022-12-03T16:20:41.328Z,103584.34
2022-12-03T16:23:45.914Z,103586.25
2022-12-03T16:26:50.632Z,103580.97
2022-12-03T16:29:56.662Z,103579.06
2022-12-03T16:33:03.100Z,103581.50
2022-12-03T16:36:08.761Z,103576.16
2022-12-03T16:39:14.064Z,103580.66
2022-12-03T16:42:19.120Z,103592.75
2022-12-03T16:45:33.845Z,103585.81
2022-12-03T16:48:39.901Z,103586.38
2022-12-03T16:51:44.533Z,103584.28
2022-12-03T16:54:49.277Z,103582.69
2022-12-03T16:57:53.985Z,103578.91
2022-12-03T17:00:58.724Z,103586.59
2022-12-03T17:04:04.804Z,103581.16
2022-12-03T17:07:10.886Z,103586.88
2022-12-03T17:10:15.720Z,103586.16
2022-12-03T17:13:20.346Z,103576.97
2022-12-03T17:16:25.373Z,103579.13
2022-12-03T17:19:31.752Z,103583.00
2022-12-03T17:22:36.940Z,103581.59
2022-12-03T17:25:41.631Z,103569.63
2022-12-03T17:28:46.677Z,103579.34
2022-12-03T17:31:51.461Z,103578.75
2022-12-03T17:34:57.677Z,103583.50
2022-12-03T17:38:03.141Z,103590.50
2022-12-03T17:41:08.464Z,103581.44
2022-12-03T17:44:19.365Z,103586.38
2022-12-03T17:47:25.860Z,103578.75
2022-12-03T17:50:31.885Z,103590.63
2022-12-03T17:53:36.553Z,103595.13
2022-12-03T17:56:43.508Z,103587.59
2022-12-03T17:59:48.262Z,103587.44
2022-12-03T18:02:53.001Z,103593.09
2022-12-03T18:05:59.080Z,103583.97
2022-12-03T18:09:04.724Z,103597.75
2022-12-03T18:12:09.488Z,103587.91
2022-12-03T18:15:14.201Z,103587.34
2022-12-03T18:18:18.961Z,103584.59
2022-12-03T18:21:25.159Z,103589.81
2022-12-03T18:24:30.813Z,103600.59
2022-12-03T18:27:35.665Z,103586.13
2022-12-03T18:30:40.308Z,103581.47
2022-12-03T18:33:45.114Z,103593.88
2022-12-03T18:36:51.365Z,103589.34
2022-12-03T18:39:56.836Z,103587.78
2022-12-03T18:43:01.869Z,103589.09
2022-12-03T18:46:31.118Z,103587.88
2022-12-03T18:49:36.577Z,103592.25
2022-12-03T18:52:42.559Z,103590.69
2022-12-03T18:55:48.504Z,103598.16
2022-12-03T18:58:56.120Z,103588.06
2022-12-03T19:02:01.137Z,103599.19
2022-12-03T19:05:06.648Z,103589.59
2022-12-03T19:08:19.239Z,103598.63
2022-12-03T19:11:24.217Z,103601.06
2022-12-03T19:14:28.847Z,103605.56
2022-12-03T19:17:33.602Z,103596.03
2022-12-03T19:20:41.991Z,103600.53
2022-12-03T19:24:22.226Z,103599.97
2022-12-03T19:27:12.940Z,103592.25
2022-12-03T19:30:18.143Z,103597.06
2022-12-03T19:33:28.239Z,103599.81
2022-12-03T19:36:33.847Z,103590.75
2022-12-03T19:39:39.961Z,103594.56
2022-12-03T19:42:44.748Z,103599.34
2022-12-03T19:45:49.474Z,103595.63
2022-12-03T19:48:55.564Z,103595.88
2022-12-03T19:52:00.347Z,103588.06
2022-12-03T19:55:07.265Z,103595.63
2022-12-03T19:58:13.989Z,103594.63
2022-12-03T20:01:20.805Z,103589.66
2022-12-03T20:04:25.444Z,103588.81
2022-12-03T20:07:30.183Z,103597.53
2022-12-03T20:10:37.121Z,103599.88
2022-12-03T20:13:42.413Z,103595.78
2022-12-03T20:16:47.595Z,103592.72
2022-12-03T20:19:52.405Z,103597.94
2022-12-03T20:22:57.497Z,103594.47
2022-12-03T20:26:03.966Z,103593.06
2022-12-03T20:29:08.664Z,103602.19
2022-12-03T20:32:14.088Z,103599.16
2022-12-03T20:35:19.281Z,103589.56
2022-12-03T20:38:24.858Z,103592.47
2022-12-03T20:41:31.180Z,103587.59
2022-12-03T20:44:37.557Z,103595.47
2022-12-03T20:47:42.327Z,103597.69
2022-12-03T20:50:47.188Z,103601.41
2022-12-03T20:53:51.981Z,103597.13
2022-12-03T20:56:57.985Z,103600.53
2022-12-03T21:00:02.818Z,103597.91
2022-12-03T21:03:07.695Z,103593.91
2022-12-03T21:06:13.641Z,103593.91
2022-12-03T21:09:18.286Z,103595.06
2022-12-03T21:12:24.327Z,103602.63
2022-12-03T21:15:29.137Z,103597.41
2022-12-03T21:18:34.362Z,103604.97
2022-12-03T21:21:39.005Z,103599.88
2022-12-03T21:24:43.908Z,103597.41
2022-12-03T21:27:50.733Z,103587.44
2022-12-03T21:30:55.444Z,103591.06
2022-12-03T21:34:00.546Z,103600.75
2022-12-03T21:37:05.774Z,103605.94
2022-12-03T21:40:13.938Z,103604.28
2022-12-03T21:43:20.100Z,103589.00
2022-12-03T21:47:12.343Z,103594.75
2022-12-03T21:49:49.369Z,103598.56
2022-12-03T21:52:55.181Z,103595.72
2022-12-03T21:56:00.344Z,103600.53
2022-12-03T21:59:06.397Z,103595.78
2022-12-03T22:02:13.227Z,103601.00
2022-12-03T22:05:18.117Z,103594.38
2022-12-03T22:08:22.829Z,103606.50
2022-12-03T22:11:27.542Z,103601.16
2022-12-03T22:14:33.642Z,103601.94
2022-12-03T22:17:38.767Z,103598.94
2022-12-03T22:20:43.863Z,103601.47
2022-12-03T22:23:48.726Z,103604.97
2022-12-03T22:26:54.819Z,103596.88
2022-12-03T22:30:01.130Z,103578.44
2022-12-03T22:33:05.970Z,103590.72
2022-12-03T22:36:20.122Z,103586.09
2022-12-03T22:39:26.037Z,103577.25
2022-12-03T22:42:30.809Z,103575.75
2022-12-03T22:45:37.928Z,103577.06
2022-12-03T22:48:43.668Z,103568.63
2022-12-03T22:51:48.709Z,103572.28
2022-12-03T22:54:53.640Z,103568.19
2022-12-03T22:57:58.416Z,103577.50
2022-12-03T23:01:04.485Z,103571.75
2022-12-03T23:04:12.130Z,103568.59
2022-12-03T23:07:16.965Z,103563.00
2022-12-03T23:10:21.731Z,103564.88
2022-12-03T23:13:26.361Z,103560.38
2022-12-03T23:16:34.655Z,103564.41
2022-12-03T23:19:39.555Z,103557.50
2022-12-03T23:22:44.326Z,103552.97
2022-12-03T23:25:58.629Z,103562.53
2022-12-03T23:29:03.428Z,103558.59
2022-12-03T23:32:09.698Z,103567.53
2022-12-03T23:35:14.453Z,103562.81
2022-12-03T23:38:19.432Z,103568.84
2022-12-03T23:41:24.942Z,103574.06
2022-12-03T23:44:30.149Z,103575.63
2022-12-03T23:47:36.251Z,103577.44
2022-12-03T23:50:41.515Z,103585.41
2022-12-03T23:53:46.793Z,103578.84
2022-12-03T23:56:51.837Z,103582.13
2022-12-03T23:59:56.995Z,103576.66
